Arnold, Kansas
Current Conditions -  °F | °C
As of 2:15 PM on Wednesday 26 Nov 2014 (Local Time) from KHYS Reporting Station
Overcast Overcast  
Wind Chill: 30°   Ceiling: 10000
Heat Index: 39°   Visibility: 10mi
Dew Point: 18°   Wind: 20mph
Humidity: 42%   Direction: 350°N
Pressure: 30.26"   Gusts: 26mph
Location:  38.64°N, 100.05°W
Report Text: KHYS 262015Z AUTO 35017G23KT 10SM OVC100 04/M08 A3026 RMK AO1
Loading
Personal Weather Stations






























Interactive Weather Map New forecast layout! Learn more

10-Day Weather Forecast

Advertisements
Track Severe Weather on mobile